createdAt,value
2022-12-18T00:01:34.346Z,3.78
2022-12-18T00:04:06.715Z,3.84
2022-12-18T00:06:35.778Z,3.89
2022-12-18T00:09:04.221Z,3.18
2022-12-18T00:11:32.644Z,3.16
2022-12-18T00:14:01.030Z,2.98
2022-12-18T00:16:29.835Z,2.90
2022-12-18T00:19:01.407Z,2.43
2022-12-18T00:21:30.879Z,2.62
2022-12-18T00:23:59.673Z,2.93
2022-12-18T00:26:33.663Z,2.76
2022-12-18T00:29:05.860Z,2.49
2022-12-18T00:31:34.015Z,2.61
2022-12-18T00:34:02.600Z,2.59
2022-12-18T00:36:32.959Z,2.49
2022-12-18T00:39:01.787Z,2.22
2022-12-18T00:41:48.447Z,1.92
2022-12-18T00:44:27.648Z,2.05
2022-12-18T00:46:56.971Z,2.23
2022-12-18T00:49:24.391Z,2.58
2022-12-18T00:51:52.181Z,2.47
2022-12-18T00:54:22.269Z,2.74
2022-12-18T00:56:51.053Z,2.23
2022-12-18T00:59:19.446Z,2.44
2022-12-18T01:01:47.998Z,2.45
2022-12-18T01:04:16.363Z,2.56
2022-12-18T01:06:46.521Z,2.13
2022-12-18T01:09:14.210Z,2.41
2022-12-18T01:11:41.730Z,2.16
2022-12-18T01:14:09.042Z,2.28
2022-12-18T01:16:38.768Z,2.58
2022-12-18T01:19:06.069Z,2.73
2022-12-18T01:21:34.460Z,2.70
2022-12-18T01:24:05.622Z,2.47
2022-12-18T01:26:33.214Z,2.48
2022-12-18T01:29:00.506Z,2.68
2022-12-18T01:31:30.750Z,2.75
2022-12-18T01:34:01.269Z,2.30
2022-12-18T01:36:31.337Z,2.48
2022-12-18T01:39:03.282Z,2.55
2022-12-18T01:41:52.424Z,2.86
2022-12-18T01:44:59.158Z,2.84
2022-12-18T01:47:53.537Z,2.40
2022-12-18T01:50:32.306Z,2.77
2022-12-18T01:53:06.646Z,2.63
2022-12-18T01:55:40.008Z,2.89
2022-12-18T01:58:07.697Z,2.88
2022-12-18T02:00:35.201Z,2.70
2022-12-18T02:03:03.020Z,2.79
2022-12-18T02:05:33.301Z,2.91
2022-12-18T02:08:19.658Z,2.64
2022-12-18T02:11:06.314Z,2.77
2022-12-18T02:13:53.169Z,2.50
2022-12-18T02:16:30.941Z,2.51
2022-12-18T02:19:04.388Z,2.56
2022-12-18T02:21:48.157Z,2.79
2022-12-18T02:24:30.708Z,2.90
2022-12-18T02:27:02.005Z,2.96
2022-12-18T02:29:57.862Z,3.12
2022-12-18T02:32:30.855Z,3.11
2022-12-18T02:34:59.590Z,3.11
2022-12-18T02:37:31.633Z,2.98
2022-12-18T02:40:07.080Z,2.99
2022-12-18T02:42:36.961Z,2.57
2022-12-18T02:45:07.912Z,2.71
2022-12-18T02:47:40.467Z,2.48
2022-12-18T02:50:12.091Z,2.39
2022-12-18T02:53:04.163Z,2.27
2022-12-18T02:56:18.000Z,2.60
2022-12-18T02:59:14.467Z,2.74
2022-12-18T03:01:56.765Z,2.73
2022-12-18T03:04:40.252Z,2.42
2022-12-18T03:07:17.272Z,2.33
2022-12-18T03:09:49.648Z,2.61
2022-12-18T03:12:31.878Z,2.60
2022-12-18T03:15:22.079Z,2.56
2022-12-18T03:18:06.596Z,2.69
2022-12-18T03:20:36.694Z,2.68
2022-12-18T03:23:10.670Z,2.61
2022-12-18T03:25:43.787Z,2.67
2022-12-18T03:28:15.580Z,2.75
2022-12-18T03:30:46.415Z,2.87
2022-12-18T03:33:41.669Z,2.99
2022-12-18T03:36:09.537Z,2.79
2022-12-18T03:38:37.185Z,2.92
2022-12-18T03:41:24.370Z,2.57
2022-12-18T03:44:14.920Z,2.59
2022-12-18T03:46:50.349Z,2.55
2022-12-18T03:49:46.439Z,2.31
2022-12-18T03:52:36.240Z,2.08
2022-12-18T03:55:06.634Z,1.79
2022-12-18T03:57:35.088Z,1.74
2022-12-18T04:00:11.843Z,1.36
2022-12-18T04:02:53.193Z,1.51
2022-12-18T04:05:28.274Z,1.38
2022-12-18T04:07:57.031Z,1.64
2022-12-18T04:10:24.564Z,1.60
2022-12-18T04:12:57.136Z,1.64
2022-12-18T04:15:26.892Z,1.70
2022-12-18T04:17:54.180Z,1.68
2022-12-18T04:20:24.896Z,1.67
2022-12-18T04:23:11.074Z,1.96
2022-12-18T04:25:39.638Z,1.94
2022-12-18T04:28:11.199Z,1.69
2022-12-18T04:30:39.963Z,1.80
2022-12-18T04:33:17.282Z,2.08
2022-12-18T04:35:46.217Z,1.96
2022-12-18T04:38:14.508Z,1.94
2022-12-18T04:40:42.610Z,1.90
2022-12-18T04:43:20.868Z,1.53
2022-12-18T04:45:48.489Z,1.60
2022-12-18T04:48:15.739Z,1.67
2022-12-18T04:50:43.212Z,1.67
2022-12-18T04:53:10.438Z,1.59
2022-12-18T04:55:37.925Z,1.73
2022-12-18T04:58:05.892Z,1.88
2022-12-18T05:00:33.665Z,1.87
2022-12-18T05:03:03.016Z,1.96
2022-12-18T05:05:30.882Z,1.94
2022-12-18T05:07:58.111Z,2.00
2022-12-18T05:10:25.567Z,1.90
2022-12-18T05:13:02.264Z,1.83
2022-12-18T05:15:33.823Z,2.14
2022-12-18T05:18:01.933Z,2.09
2022-12-18T05:20:29.935Z,2.17
2022-12-18T05:22:57.325Z,1.92
2022-12-18T05:25:25.177Z,1.72
2022-12-18T05:27:52.361Z,1.52
2022-12-18T05:30:19.972Z,1.77
2022-12-18T05:32:47.247Z,1.84
2022-12-18T05:35:14.749Z,1.62
2022-12-18T05:37:43.425Z,1.75
2022-12-18T05:40:12.142Z,1.83
2022-12-18T05:42:39.705Z,1.55
2022-12-18T05:45:07.687Z,1.49
2022-12-18T05:47:35.243Z,1.81
2022-12-18T05:50:02.962Z,1.70
2022-12-18T05:52:31.401Z,1.75
2022-12-18T05:55:00.032Z,1.80
2022-12-18T05:57:27.276Z,1.58
2022-12-18T05:59:54.830Z,1.37
2022-12-18T06:02:22.287Z,1.58
2022-12-18T06:04:52.127Z,1.61
2022-12-18T06:07:19.366Z,1.36
2022-12-18T06:09:46.811Z,1.40
2022-12-18T06:12:13.999Z,1.44
2022-12-18T06:14:41.496Z,1.28
2022-12-18T06:17:08.683Z,0.82
2022-12-18T06:19:36.263Z,0.82
2022-12-18T06:22:03.591Z,1.18
2022-12-18T06:24:31.446Z,1.26
2022-12-18T06:26:58.657Z,1.06
2022-12-18T06:29:26.112Z,1.39
2022-12-18T06:31:53.306Z,1.17
2022-12-18T06:34:20.791Z,1.51
2022-12-18T06:36:48.082Z,1.45
2022-12-18T06:39:15.521Z,1.56
2022-12-18T06:41:42.710Z,1.40
2022-12-18T06:44:10.459Z,1.55
2022-12-18T06:46:39.056Z,1.30
2022-12-18T06:49:06.585Z,1.61
2022-12-18T06:51:33.709Z,1.54
2022-12-18T06:54:01.204Z,1.36
2022-12-18T06:56:29.065Z,1.30
2022-12-18T06:58:56.645Z,1.36
2022-12-18T07:01:24.065Z,1.32
2022-12-18T07:03:58.095Z,1.21
2022-12-18T07:06:27.140Z,1.18
2022-12-18T07:08:55.212Z,1.37
2022-12-18T07:11:22.664Z,1.45
2022-12-18T07:13:50.189Z,1.59
2022-12-18T07:16:24.653Z,1.57
2022-12-18T07:18:55.266Z,1.55
2022-12-18T07:21:23.914Z,1.41
2022-12-18T07:23:52.057Z,1.61
2022-12-18T07:26:21.114Z,1.24
2022-12-18T07:28:49.407Z,1.25
2022-12-18T07:31:21.548Z,2.11
2022-12-18T07:33:50.241Z,2.09
2022-12-18T07:36:18.109Z,2.28
2022-12-18T07:38:48.202Z,3.14
2022-12-18T07:41:16.202Z,4.05
2022-12-18T07:43:44.539Z,4.53
2022-12-18T07:46:14.868Z,4.74
2022-12-18T07:48:44.229Z,5.21
2022-12-18T07:51:13.655Z,5.25
2022-12-18T07:53:42.561Z,6.02
2022-12-18T07:56:27.159Z,6.93
2022-12-18T07:58:56.130Z,8.00
2022-12-18T08:01:23.673Z,8.96
2022-12-18T08:04:10.420Z,10.01
2022-12-18T08:06:37.644Z,10.43
2022-12-18T08:09:05.201Z,10.53
2022-12-18T08:11:32.596Z,8.00
2022-12-18T08:14:00.090Z,7.19
2022-12-18T08:16:27.430Z,7.22
2022-12-18T08:18:55.518Z,7.14
2022-12-18T08:21:26.292Z,7.91
2022-12-18T08:24:00.049Z,9.17
2022-12-18T08:26:29.579Z,9.89
2022-12-18T08:28:58.509Z,9.50
2022-12-18T08:31:27.677Z,10.41
2022-12-18T08:33:55.840Z,10.95
2022-12-18T08:36:25.045Z,10.60
2022-12-18T08:38:53.905Z,9.08
2022-12-18T08:41:22.219Z,9.52
2022-12-18T08:44:08.879Z,9.72
2022-12-18T08:46:39.486Z,11.20
2022-12-18T08:49:09.044Z,11.99
2022-12-18T08:51:37.094Z,12.15
2022-12-18T08:54:06.347Z,12.43
2022-12-18T08:56:35.212Z,12.87
2022-12-18T08:59:03.306Z,12.63
2022-12-18T09:01:30.591Z,12.53
2022-12-18T09:03:59.179Z,11.85
2022-12-18T09:06:27.662Z,11.40
2022-12-18T09:08:55.243Z,11.12
2022-12-18T09:11:25.761Z,10.93
2022-12-18T09:13:55.019Z,10.09
2022-12-18T09:16:28.676Z,9.50
2022-12-18T09:19:00.960Z,10.27
2022-12-18T09:21:31.617Z,10.83
2022-12-18T09:24:01.079Z,11.99
2022-12-18T09:26:28.390Z,11.30
2022-12-18T09:28:56.945Z,11.30
2022-12-18T09:31:25.783Z,11.02
2022-12-18T09:33:53.396Z,11.78
2022-12-18T09:36:23.059Z,10.99
2022-12-18T09:38:50.584Z,10.05
2022-12-18T09:41:55.998Z,9.96
2022-12-18T09:44:28.633Z,9.30
2022-12-18T09:47:14.924Z,9.92
2022-12-18T09:49:46.765Z,11.16
2022-12-18T09:52:38.680Z,11.15
2022-12-18T09:55:32.167Z,11.50
2022-12-18T09:58:22.048Z,8.12
2022-12-18T10:00:52.427Z,8.11
2022-12-18T10:03:20.067Z,8.13
2022-12-18T10:06:08.922Z,9.28
2022-12-18T10:09:11.639Z,9.92
2022-12-18T10:11:49.525Z,8.90
2022-12-18T10:14:23.350Z,8.20
2022-12-18T10:16:53.684Z,7.92
2022-12-18T10:19:50.459Z,7.12
2022-12-18T10:22:30.182Z,6.52
2022-12-18T10:25:22.148Z,7.88
2022-12-18T10:27:58.816Z,8.60
2022-12-18T10:30:27.393Z,8.49
2022-12-18T10:32:57.160Z,7.45
2022-12-18T10:35:27.938Z,7.03
2022-12-18T10:38:13.294Z,7.17
2022-12-18T10:40:49.710Z,6.94
2022-12-18T10:43:22.466Z,6.22
2022-12-18T10:46:07.020Z,5.38
2022-12-18T10:48:42.993Z,5.11
2022-12-18T10:51:12.991Z,5.16
2022-12-18T10:53:43.948Z,4.41
2022-12-18T10:56:12.053Z,4.09
2022-12-18T10:58:40.876Z,4.19
2022-12-18T11:01:18.845Z,4.20
2022-12-18T11:03:56.398Z,4.32
2022-12-18T11:06:26.843Z,4.81
2022-12-18T11:09:13.197Z,4.66
2022-12-18T11:11:40.668Z,4.94
2022-12-18T11:14:20.246Z,5.78
2022-12-18T11:17:23.884Z,5.72
2022-12-18T11:19:39.070Z,5.61
2022-12-18T11:22:28.911Z,5.44
2022-12-18T11:25:35.339Z,5.81
2022-12-18T11:28:24.942Z,6.69
2022-12-18T11:31:13.657Z,7.45
2022-12-18T11:34:04.763Z,7.83
2022-12-18T11:36:39.386Z,7.53
2022-12-18T11:39:17.776Z,7.39
2022-12-18T11:42:12.923Z,8.19
2022-12-18T11:44:52.115Z,7.33
2022-12-18T11:47:41.460Z,6.49
2022-12-18T11:50:16.242Z,5.48
2022-12-18T11:52:44.113Z,4.77
2022-12-18T11:55:52.651Z,4.64
2022-12-18T11:58:43.801Z,4.36
2022-12-18T12:01:45.085Z,3.94
2022-12-18T12:04:47.079Z,4.30
2022-12-18T12:07:22.038Z,4.61
2022-12-18T12:09:49.574Z,4.65
2022-12-18T12:12:28.779Z,4.80
2022-12-18T12:15:23.007Z,5.51
2022-12-18T12:18:11.277Z,6.44
2022-12-18T12:21:20.613Z,7.48
2022-12-18T12:24:09.791Z,8.38
2022-12-18T12:26:58.579Z,8.73
2022-12-18T12:29:52.241Z,9.02
2022-12-18T12:32:46.952Z,8.79
2022-12-18T12:35:45.383Z,7.79
2022-12-18T12:38:26.426Z,8.02
2022-12-18T12:41:03.056Z,7.32
2022-12-18T12:43:50.686Z,6.65
2022-12-18T12:46:22.869Z,6.16
2022-12-18T12:48:56.374Z,5.72
2022-12-18T12:51:36.303Z,5.23
2022-12-18T12:54:07.610Z,5.34
2022-12-18T12:57:04.479Z,5.09
2022-12-18T13:00:09.611Z,5.22
2022-12-18T13:02:45.068Z,4.82
2022-12-18T13:05:16.347Z,5.03
2022-12-18T13:07:52.604Z,5.00
2022-12-18T13:10:20.936Z,5.19
2022-12-18T13:12:57.040Z,4.87
2022-12-18T13:15:42.016Z,4.82
2022-12-18T13:18:09.547Z,4.61
2022-12-18T13:20:39.717Z,4.04
2022-12-18T13:23:25.473Z,4.29
2022-12-18T13:26:11.442Z,3.97
2022-12-18T13:28:58.701Z,3.80
2022-12-18T13:31:41.846Z,3.75
2022-12-18T13:34:29.359Z,3.20
2022-12-18T13:37:32.938Z,3.16
2022-12-18T13:40:00.229Z,3.27
2022-12-18T13:42:50.428Z,2.96
2022-12-18T13:45:40.264Z,3.14
2022-12-18T13:48:23.747Z,3.65
2022-12-18T13:51:14.416Z,3.64
2022-12-18T13:53:51.852Z,3.92
2022-12-18T13:56:29.458Z,3.67
2022-12-18T13:59:20.424Z,3.63
2022-12-18T14:01:58.561Z,3.26
2022-12-18T14:04:29.312Z,3.20
2022-12-18T14:07:05.547Z,3.01
2022-12-18T14:09:39.036Z,3.08
2022-12-18T14:12:33.974Z,3.16
2022-12-18T14:15:01.831Z,2.96
2022-12-18T14:17:29.324Z,2.94
2022-12-18T14:19:58.473Z,2.68
2022-12-18T14:22:36.443Z,2.56
2022-12-18T14:25:31.106Z,2.50
2022-12-18T14:28:15.517Z,2.85
2022-12-18T14:30:45.083Z,2.86
2022-12-18T14:33:21.233Z,2.91
2022-12-18T14:36:03.423Z,3.29
2022-12-18T14:38:41.075Z,3.36
2022-12-18T14:41:12.755Z,3.35
2022-12-18T14:43:42.928Z,3.12
2022-12-18T14:46:36.864Z,3.31
2022-12-18T14:49:19.325Z,3.21
2022-12-18T14:51:53.223Z,3.33
2022-12-18T14:54:23.024Z,2.95
2022-12-18T14:56:57.623Z,3.06
2022-12-18T14:59:27.090Z,3.11
2022-12-18T15:01:55.189Z,3.05
2022-12-18T15:04:27.663Z,2.78
2022-12-18T15:07:11.983Z,2.57
2022-12-18T15:09:41.181Z,2.34
2022-12-18T15:12:33.177Z,2.32
2022-12-18T15:15:00.564Z,2.20
2022-12-18T15:17:28.460Z,2.41
2022-12-18T15:20:03.108Z,2.62
2022-12-18T15:22:37.384Z,2.77
2022-12-18T15:25:28.146Z,3.03
2022-12-18T15:27:55.810Z,2.88
2022-12-18T15:30:25.495Z,2.83
2022-12-18T15:33:13.852Z,2.74
2022-12-18T15:35:46.626Z,2.84
2022-12-18T15:38:14.583Z,2.94
2022-12-18T15:40:42.265Z,3.40
2022-12-18T15:43:29.604Z,3.29
2022-12-18T15:45:57.318Z,2.99
2022-12-18T15:48:24.940Z,3.00
2022-12-18T15:50:54.868Z,2.81
2022-12-18T15:53:22.494Z,2.45
2022-12-18T15:56:08.166Z,2.59
2022-12-18T15:58:36.047Z,2.57
2022-12-18T16:01:03.837Z,2.34
2022-12-18T16:03:33.016Z,2.12
2022-12-18T16:06:04.523Z,2.63
2022-12-18T16:08:34.523Z,2.84
2022-12-18T16:11:02.643Z,2.72
2022-12-18T16:13:31.194Z,2.73
2022-12-18T16:15:58.870Z,2.73
2022-12-18T16:18:26.407Z,2.70
2022-12-18T16:20:53.959Z,2.53
2022-12-18T16:23:23.907Z,2.68
2022-12-18T16:25:51.595Z,2.67
2022-12-18T16:28:19.041Z,2.78
2022-12-18T16:30:46.259Z,2.79
2022-12-18T16:33:13.799Z,2.55
2022-12-18T16:35:41.144Z,2.39
2022-12-18T16:38:08.618Z,2.11
2022-12-18T16:40:55.956Z,2.08
2022-12-18T16:43:23.636Z,2.05
2022-12-18T16:45:50.851Z,2.14
2022-12-18T16:48:19.414Z,2.53
2022-12-18T16:50:46.531Z,2.93
2022-12-18T16:53:13.969Z,2.92
2022-12-18T16:55:41.268Z,3.02
2022-12-18T16:58:08.819Z,2.93
2022-12-18T17:00:41.360Z,3.02
2022-12-18T17:03:10.577Z,3.14
2022-12-18T17:05:37.914Z,3.25
2022-12-18T17:08:06.644Z,3.23
2022-12-18T17:10:36.220Z,3.19
2022-12-18T17:13:03.866Z,3.06
2022-12-18T17:15:31.094Z,3.05
2022-12-18T17:18:00.193Z,2.79
2022-12-18T17:20:27.544Z,2.53
2022-12-18T17:22:55.218Z,2.36
2022-12-18T17:25:26.643Z,2.52
2022-12-18T17:27:54.449Z,2.40
2022-12-18T17:30:21.638Z,2.77
2022-12-18T17:32:49.131Z,2.97
2022-12-18T17:35:17.167Z,2.66
2022-12-18T17:37:44.774Z,2.67
2022-12-18T17:40:12.343Z,2.68
2022-12-18T17:42:40.187Z,3.00
2022-12-18T17:45:07.958Z,2.88
2022-12-18T17:47:36.303Z,2.80
2022-12-18T17:50:03.570Z,2.70
2022-12-18T17:52:33.863Z,2.45
2022-12-18T17:55:02.592Z,2.41
2022-12-18T17:57:30.384Z,2.57
2022-12-18T17:59:57.569Z,2.46
2022-12-18T18:02:25.239Z,2.29
2022-12-18T18:04:54.863Z,2.64
2022-12-18T18:07:22.735Z,3.03
2022-12-18T18:09:49.995Z,2.92
2022-12-18T18:12:36.015Z,2.93
2022-12-18T18:15:03.404Z,2.55
2022-12-18T18:17:31.148Z,2.38
2022-12-18T18:20:00.130Z,2.59
2022-12-18T18:22:29.177Z,2.58
2022-12-18T18:24:56.579Z,2.91
2022-12-18T18:27:24.052Z,2.81
2022-12-18T18:29:51.524Z,2.57
2022-12-18T18:32:19.061Z,2.23
2022-12-18T18:34:46.530Z,1.93
2022-12-18T18:37:14.022Z,1.72
2022-12-18T18:39:41.857Z,1.64
2022-12-18T18:42:09.454Z,1.77
2022-12-18T18:44:38.049Z,1.96
2022-12-18T18:47:05.652Z,1.94
2022-12-18T18:49:36.717Z,1.83
2022-12-18T18:52:04.567Z,1.89
2022-12-18T18:54:31.909Z,1.78
2022-12-18T18:59:47.043Z,1.44
2022-12-18T19:02:16.835Z,1.17
2022-12-18T19:04:46.242Z,1.04
2022-12-18T19:07:24.331Z,0.91
2022-12-18T19:09:59.586Z,0.95
2022-12-18T19:12:50.525Z,0.87
2022-12-18T19:15:17.683Z,0.97
2022-12-18T19:17:47.052Z,0.98
2022-12-18T19:20:15.319Z,0.79
2022-12-18T19:22:43.264Z,0.65
2022-12-18T19:25:15.210Z,0.73
2022-12-18T19:27:43.109Z,0.28
2022-12-18T19:30:11.038Z,0.70
2022-12-18T19:32:38.767Z,0.50
2022-12-18T19:35:06.871Z,0.38
2022-12-18T19:37:35.739Z,0.44
2022-12-18T19:40:24.278Z,0.38
2022-12-18T19:42:52.104Z,0.44
2022-12-18T19:45:19.729Z,0.54
2022-12-18T19:47:47.251Z,0.63
2022-12-18T19:50:14.855Z,0.46
2022-12-18T19:52:42.426Z,0.41
2022-12-18T19:55:09.913Z,0.33
2022-12-18T19:57:37.435Z,0.57
2022-12-18T20:00:08.171Z,0.58
2022-12-18T20:02:41.455Z,0.80
2022-12-18T20:05:12.189Z,0.86
2022-12-18T20:07:40.193Z,0.96
2022-12-18T20:10:15.108Z,0.91
2022-12-18T20:12:44.895Z,0.96
2022-12-18T20:15:12.502Z,0.83
2022-12-18T20:17:39.963Z,0.93
2022-12-18T20:20:11.277Z,1.02
2022-12-18T20:22:39.847Z,0.94
2022-12-18T20:25:07.572Z,0.91
2022-12-18T20:27:35.119Z,0.86
2022-12-18T20:30:02.333Z,0.89
2022-12-18T20:32:35.332Z,1.03
2022-12-18T20:35:04.595Z,0.88
2022-12-18T20:37:33.932Z,0.94
2022-12-18T20:40:01.350Z,0.95
2022-12-18T20:42:32.629Z,1.15
2022-12-18T20:44:59.823Z,1.26
2022-12-18T20:47:27.395Z,1.62
2022-12-18T20:49:54.616Z,1.50
2022-12-18T20:52:22.567Z,1.40
2022-12-18T20:54:51.023Z,1.24
2022-12-18T20:57:18.569Z,1.51
2022-12-18T20:59:48.271Z,2.18
2022-12-18T21:02:17.030Z,2.04
2022-12-18T21:04:47.296Z,1.67
2022-12-18T21:07:14.914Z,1.31
2022-12-18T21:09:42.115Z,1.33
2022-12-18T21:12:32.515Z,1.10
2022-12-18T21:15:02.636Z,1.04
2022-12-18T21:17:30.338Z,1.19
2022-12-18T21:20:01.583Z,1.41
2022-12-18T21:22:37.150Z,1.33
2022-12-18T21:25:05.297Z,1.23
2022-12-18T21:27:33.932Z,1.25
2022-12-18T21:30:01.257Z,1.16
2022-12-18T21:32:31.943Z,1.29
2022-12-18T21:35:01.013Z,1.37
2022-12-18T21:37:28.525Z,1.30
2022-12-18T21:39:55.774Z,1.41
2022-12-18T21:42:41.980Z,1.48
2022-12-18T21:45:09.685Z,1.49
2022-12-18T21:47:37.200Z,1.46
2022-12-18T21:50:04.725Z,1.48
2022-12-18T21:52:32.880Z,1.68
2022-12-18T21:55:08.338Z,1.59
2022-12-18T21:57:37.471Z,1.62
2022-12-18T22:00:18.727Z,1.39
2022-12-18T22:03:15.567Z,1.37
2022-12-18T22:05:36.141Z,1.39
2022-12-18T22:08:03.812Z,1.65
2022-12-18T22:10:31.346Z,1.88
2022-12-18T22:12:58.842Z,1.90
2022-12-18T22:15:26.307Z,2.07
2022-12-18T22:17:59.681Z,2.05
2022-12-18T22:20:29.820Z,2.08
2022-12-18T22:22:58.485Z,2.13
2022-12-18T22:25:25.930Z,1.85
2022-12-18T22:28:11.860Z,1.63
2022-12-18T22:30:39.331Z,1.48
2022-12-18T22:33:06.861Z,1.13
2022-12-18T22:35:33.990Z,1.13
2022-12-18T22:38:01.942Z,1.03
2022-12-18T22:40:29.675Z,1.10
2022-12-18T22:42:57.360Z,1.17
2022-12-18T22:45:26.617Z,1.30
2022-12-18T22:47:54.337Z,1.19
2022-12-18T22:50:21.545Z,1.48
2022-12-18T22:52:49.133Z,1.74
2022-12-18T22:55:16.357Z,1.95
2022-12-18T22:57:47.994Z,2.02
2022-12-18T23:00:24.263Z,1.94
2022-12-18T23:02:59.801Z,1.94
2022-12-18T23:05:29.699Z,1.98
2022-12-18T23:07:58.125Z,1.75
2022-12-18T23:10:25.572Z,1.76
2022-12-18T23:12:53.294Z,1.92
2022-12-18T23:15:27.566Z,2.13
2022-12-18T23:17:57.939Z,2.19
2022-12-18T23:20:27.459Z,2.16
2022-12-18T23:22:55.421Z,1.73
2022-12-18T23:25:23.058Z,1.77
2022-12-18T23:27:50.695Z,2.04
2022-12-18T23:30:18.011Z,2.07
2022-12-18T23:32:45.533Z,1.97
2022-12-18T23:35:14.245Z,1.84
2022-12-18T23:38:00.553Z,1.78
2022-12-18T23:40:29.999Z,1.88
2022-12-18T23:43:00.279Z,1.91
2022-12-18T23:45:27.831Z,1.76
2022-12-18T23:47:55.260Z,1.91
2022-12-18T23:50:28.663Z,1.81
2022-12-18T23:53:03.774Z,2.04
2022-12-18T23:55:38.597Z,1.69
2022-12-18T23:58:06.556Z,1.61
